Home > Products > Valid Products > TAF

000
FTUS41 KRLX 250500
TAFEKN
TAF
KEKN 250537Z 2506/2606 00000KT 3SM BR SCT001
      TEMPO 2506/2508 1/2SM FG BKN001
     FM250800 00000KT 1/4SM FG VV001
      TEMPO 2508/2510 2SM BR BKN002
     FM251300 VRB03KT 2SM BR BKN002
     FM251400 24003KT 5SM BR SCT003
     FM251500 26007KT P6SM SCT040
     FM252000 25007KT P6SM BKN040
     FM260400 27008KT P6SM BKN025=



000
FTUS41 KRLX 250500
TAFCRW
TAF
KCRW 250537Z 2506/2606 00000KT 6SM BR SCT250
     FM250800 00000KT 3SM BR FEW001
     FM250900 00000KT 2SM BR SCT001
      TEMPO 2509/2513 1/4SM FG VV001
     FM251300 00000KT 3SM BR BKN002
     FM251400 22004KT 6SM BR SCT003
     FM251500 23006KT P6SM SCT040
     FM251800 23007KT P6SM BKN040
     FM260400 26004KT P6SM BKN025=



000
FTUS41 KRLX 250500
TAFPKB
TAF
KPKB 250537Z 2506/2606 00000KT P6SM SCT250
     FM251100 VRB03KT 6SM BR BKN250
     FM251200 VRB03KT 5SM BR SCT040
     FM251300 22003KT 6SM BR SCT040
     FM251400 VRB03KT P6SM SCT040
     FM251700 22007KT P6SM BKN035
     FM260200 26006KT P6SM SCT035
     FM260300 27005KT P6SM BKN250=



000
FTUS41 KRLX 250500
TAFBKW
TAF
KBKW 250537Z 2506/2606 20003KT P6SM SCT250
     FM251600 27006KT P6SM SCT250
     FM252000 27008KT P6SM BKN040
     FM260200 28011G21KT P6SM BKN025
     FM260400 28008G13KT P6SM BKN025=



000
FTUS41 KRLX 250500
TAFHTS
TAF
KHTS 250537Z 2506/2606 00000KT P6SM SCT250
     FM251100 00000KT 6SM BR SCT250
     FM251400 VRB03KT P6SM BKN250
     FM251500 23007KT P6SM BKN040
     FM260500 29004KT P6SM SCT025=



000
FTUS41 KRLX 250500
TAFCKB
TAF
KCKB 250537Z 2506/2606 00000KT P6SM SCT250
      TEMPO 2508/2512 5SM BR
     FM251600 23007KT P6SM BKN040
     FM252300 24009G18KT P6SM BKN040
     FM260200 25007KT P6SM BKN035
     FM260500 28005KT P6SM SCT025=



000
FTUS41 KRLX 250200 AAA
TAFPKB
TAF AMD
KPKB 250224Z 2502/2524 00000KT P6SM SKC
     FM250900 00000KT 5SM BR SCT050
     FM251300 22006KT P6SM SCT025
     FM251700 23008KT P6SM BKN035=



000
FTUS41 KRLX 250200 AAA
TAFEKN
TAF AMD
KEKN 250224Z 2502/2524 00000KT P6SM SKC
     FM250400 00000KT 6SM BR SKC
     FM250500 00000KT 2SM BR SCT001
     FM250600 00000KT 1/4SM FG VV001
     FM251200 00000KT 2SM BR SCT002 BKN050
     FM251400 25005KT P6SM BKN040
     FM252200 26009G14KT P6SM BKN045=



000
FTUS41 KRLX 250200 AAA
TAFBKW
TAF AMD
KBKW 250224Z 2502/2524 00000KT P6SM SKC
     FM251500 26006KT P6SM FEW020
     FM252200 27008KT P6SM BKN035=



000
FTUS41 KRLX 250200 AAA
TAFHTS
TAF AMD
KHTS 250224Z 2502/2524 00000KT P6SM SKC
     FM250800 00000KT 5SM BR FEW002 FEW050
     FM251300 00000KT P6SM SCT040
     FM251600 22006KT P6SM BKN050
     FM252200 25008KT P6SM BKN030=



000
FTUS41 KRLX 250200 AAA
TAFCRW
TAF AMD
KCRW 250224Z 2502/2524 00000KT P6SM SKC
     FM250500 00000KT 6SM BR SKC
     FM250600 00000KT 5SM BR FEW001
     FM250700 00000KT 2SM BR SCT001
     FM251300 00000KT 6SM BR SCT001
     FM251500 23005KT P6SM SCT040
     FM252100 24008KT P6SM BKN035=



000
FTUS41 KRLX 250200 AAA
TAFCKB
TAF AMD
KCKB 250224Z 2502/2524 00000KT P6SM SKC
     FM251400 23008KT P6SM SCT045
     FM252000 24009G14KT P6SM BKN040=



000
FTUS41 KRLX 242300
TAFPKB
TAF
KPKB 242320Z 2500/2524 00000KT P6SM SKC
     FM251000 00000KT P6SM SCT050
     FM251500 22006KT P6SM SCT025
     FM251700 23008KT P6SM BKN035=



000
FTUS41 KRLX 242300
TAFEKN
TAF
KEKN 242320Z 2500/2524 00000KT P6SM SKC
     FM250500 00000KT 6SM BR SKC
     FM250600 00000KT 2SM BR SCT001
     FM250700 00000KT 1/4SM FG VV001
     FM251200 00000KT 2SM BR SCT002 BKN050
     FM251400 25005KT P6SM BKN040
     FM252200 26009G14KT P6SM BKN045=



000
FTUS41 KRLX 242300
TAFCKB
TAF
KCKB 242320Z 2500/2524 00000KT P6SM SKC
     FM251400 23008KT P6SM SCT045
     FM252000 24009G14KT P6SM BKN040=



000
FTUS41 KRLX 242300
TAFBKW
TAF
KBKW 242320Z 2500/2524 00000KT P6SM SKC
     FM251500 26006KT P6SM FEW020
     FM252200 27008KT P6SM BKN035=



000
FTUS41 KRLX 242300
TAFCRW
TAF
KCRW 242320Z 2500/2524 00000KT P6SM SKC
     FM250500 00000KT 6SM BR SKC
     FM250600 00000KT 5SM BR FEW001
     FM250900 00000KT 2SM BR SCT001
     FM251300 00000KT 6SM BR SCT001
     FM251500 23005KT P6SM SCT040
     FM252100 24008KT P6SM BKN035=



000
FTUS41 KRLX 242300
TAFHTS
TAF
KHTS 242320Z 2500/2524 00000KT P6SM SKC
     FM251200 00000KT P6SM SCT040
     FM251600 22006KT P6SM BKN050
     FM252200 25008KT P6SM BKN030=



000
FTUS41 KRLX 242000 AAA
TAFCKB
TAF AMD
KCKB 242057Z 2421/2518 26007KT P6SM SCT250
     FM242300 00000KT P6SM SKC
     FM251100 00000KT P6SM SCT040
     FM251500 24006KT P6SM SCT035=



000
FTUS41 KRLX 242000 AAA
TAFHTS
TAF AMD
KHTS 242057Z 2421/2518 28005KT P6SM SCT250
     FM242300 00000KT P6SM SKC
     FM251100 00000KT P6SM SCT040
     FM251600 24007KT P6SM SCT250=



000
FTUS41 KRLX 242000 AAA
TAFEKN
TAF AMD
KEKN 242057Z 2421/2518 29006KT P6SM SCT200
     FM242300 00000KT P6SM SKC
     FM250600 00000KT 5SM BR SKC
     FM250700 00000KT 2SM BR SCT001
     FM250800 00000KT 1/4SM FG VV001
     FM251000 00000KT 1SM BR BKN001
     FM251100 00000KT 3SM BR SCT002
     FM251200 00000KT P6SM SKC
     FM251500 26005KT P6SM SCT040=



000
FTUS41 KRLX 242000 AAA
TAFPKB
TAF AMD
KPKB 242057Z 2421/2518 24005KT P6SM SKC
     FM242300 00000KT P6SM SKC
     FM251000 VRB03KT P6SM SCT040
     FM251500 23007KT P6SM SCT025=



000
FTUS41 KRLX 242000 AAA
TAFCRW
TAF AMD
KCRW 242057Z 2421/2518 26005KT P6SM SCT200
     FM242300 00000KT P6SM SKC
     FM250900 00000KT 4SM BR SCT001
     FM251400 23004KT P6SM SCT040=



000
FTUS41 KRLX 242000 AAA
TAFBKW
TAF AMD
KBKW 242057Z 2421/2518 31006KT P6SM SCT250
     FM242300 00000KT P6SM SKC
     FM251600 27007KT P6SM SCT045=



000
FTUS41 KRLX 241700
TAFCKB
TAF
KCKB 241727Z 2418/2518 26007KT P6SM SCT250
     FM242300 00000KT P6SM SKC
     FM251100 00000KT P6SM SCT040
     FM251500 24006KT P6SM SCT035=



000
FTUS41 KRLX 241700
TAFPKB
TAF
KPKB 241727Z 2418/2518 26005KT P6SM SCT030
     FM241900 26005KT P6SM SKC
     FM242300 00000KT P6SM SKC
     FM251000 VRB03KT P6SM SCT040
     FM251500 23007KT P6SM SCT025=



000
FTUS41 KRLX 241700
TAFHTS
TAF
KHTS 241727Z 2418/2518 26005KT P6SM SCT250
     FM242300 00000KT P6SM SKC
     FM251100 00000KT P6SM SCT040
     FM251600 24007KT P6SM SCT250=



000
FTUS41 KRLX 241700
TAFCRW
TAF
KCRW 241727Z 2418/2518 28005KT P6SM SCT250
     FM242300 00000KT P6SM SKC
     FM250900 00000KT 4SM BR SCT001
     FM251400 23004KT P6SM SCT040=



000
FTUS41 KRLX 241700
TAFBKW
TAF
KBKW 241727Z 2418/2518 29006KT P6SM BKN250
     FM242300 00000KT P6SM SKC
     FM251600 27007KT P6SM SCT045=



000
FTUS41 KRLX 241700
TAFEKN
TAF
KEKN 241727Z 2418/2518 29006KT P6SM SCT200
     FM242300 00000KT P6SM SKC
     FM250600 00000KT 5SM BR SKC
     FM250700 00000KT 2SM BR SCT001
     FM250800 00000KT 1/4SM FG VV001
     FM251000 00000KT 1SM BR BKN001
     FM251100 00000KT 3SM BR SCT002
     FM251200 00000KT P6SM SKC
     FM251500 26005KT P6SM SCT040=



000
FTUS41 KRLX 241600 AAC
TAFEKN
TAF AMD
KEKN 241601Z 2416/2512 29005KT P6SM SCT150
     FM250000 00000KT P6SM SCT200
     FM250300 00000KT P6SM BKN035
     FM250500 00000KT P6SM BKN025=



000
FTUS41 KRLX 241500 AAA
TAFBKW
TAF AMD
KBKW 241528Z 2415/2512 VRB03KT P6SM SCT008
     FM241600 32006KT P6SM SCT150
     FM250000 00000KT P6SM FEW150=



000
FTUS41 KRLX 241500 AAA
TAFCKB
TAF AMD
KCKB 241527Z 2415/2512 VRB03KT P6SM SCT200
     FM250700 00000KT P6SM SCT035=



000
FTUS41 KRLX 241500 AAB
TAFEKN
TAF AMD
KEKN 241503Z 2415/2512 34005KT P6SM BKN025
     FM241700 29005KT P6SM SCT030
     FM241800 29005KT P6SM SCT150
     FM250000 00000KT P6SM SCT200
     FM250300 00000KT P6SM BKN035
     FM250500 00000KT P6SM BKN025=



000
FTUS41 KRLX 241500 AAC
TAFCRW
TAF AMD
KCRW 241501Z 2415/2512 00000KT 4SM BR SCT012
      TEMPO 2415/2416 1/2SM FG
     FM241600 00000KT P6SM SCT200
     FM250800 00000KT 6SM BR SCT080
     FM251000 00000KT 5SM BR SCT080=



000
FTUS41 KRLX 241400 AAB
TAFPKB
TAF AMD
KPKB 241409Z 2414/2512 00000KT 1/2SM FG VV002
      TEMPO 2414/2415 4SM BR SCT002
     FM241500 00000KT P6SM BKN200
     FM250700 00000KT P6SM SCT035=



000
FTUS41 KRLX 241400 AAB
TAFPKB
TAF AMD
KPKB 241409Z 2414/2512 00000KT 1/2SM FG VV002
      TEMPO 2414/2415 4SM BR SCT002
     FM241500 00000KT P6SM BKN200
     FM250700 00000KT P6SM SCT035=



000
FTUS41 KRLX 241400 AAB
TAFHTS
TAF AMD
KHTS 241408Z 2414/2512 00000KT 5SM BR BKN250
     FM241500 VRB03KT P6SM BKN150
     FM251100 00000KT 6SM BR SCT080=



000
FTUS41 KRLX 241400 AAB
TAFHTS
TAF AMD
KHTS 241408Z 2414/2512 00000KT 5SM BR BKN250
     FM241500 VRB03KT P6SM BKN150
     FM251100 00000KT 6SM BR SCT080=



000
FTUS41 KRLX 241400 AAB
TAFCRW
TAF AMD
KCRW 241405Z 2414/2512 00000KT 1/2SM FG VV001
      TEMPO 2414/2415 4SM BR SCT001
     FM241500 00000KT P6SM BKN200
     FM250800 00000KT 6SM BR SCT080
     FM251000 00000KT 5SM BR SCT080=



000
FTUS41 KRLX 241400 AAB
TAFCRW
TAF AMD
KCRW 241405Z 2414/2512 00000KT 1/2SM FG VV001
      TEMPO 2414/2415 4SM BR SCT001
     FM241500 00000KT P6SM BKN200
     FM250800 00000KT 6SM BR SCT080
     FM251000 00000KT 5SM BR SCT080=



000
FTUS41 KRLX 241300 AAA
TAFPKB
TAF AMD
KPKB 241310Z 2413/2512 00000KT 1/4SM FG VV001
      TEMPO 2413/2414 2SM BR BKN002
     FM241400 00000KT 3SM BR BKN002
      TEMPO 2414/2415 6SM BR SCT003
     FM241500 00000KT P6SM BKN200
     FM250700 00000KT P6SM SCT035=



000
FTUS41 KRLX 241300 AAA
TAFEKN
TAF AMD
KEKN 241310Z 2413/2512 00000KT 5SM BR BKN250
     FM241400 29004KT P6SM SCT150
     FM250000 00000KT P6SM SCT200
     FM250300 00000KT P6SM BKN035
     FM250500 00000KT P6SM BKN025=



000
FTUS41 KRLX 241300 AAA
TAFHTS
TAF AMD
KHTS 241309Z 2413/2512 00000KT 5SM BR BKN250
     FM241400 VRB03KT P6SM BKN150
     FM251100 00000KT 6SM BR SCT080=



000
FTUS41 KRLX 241300 AAA
TAFCRW
TAF AMD
KCRW 241309Z 2413/2512 00000KT 1/2SM FG VV001
      TEMPO 2413/2414 2SM BR BKN002
     FM241400 00000KT 3SM BR BKN002
      TEMPO 2414/2415 6SM BR SCT003
     FM241500 00000KT P6SM BKN200
     FM250800 00000KT 6SM BR SCT080
     FM251000 00000KT 5SM BR SCT080=



000
FTUS41 KRLX 241100
TAFPKB
TAF
KPKB 241120Z 2412/2512 00000KT 1/4SM FG VV001
      TEMPO 2412/2413 2SM BR BKN002
     FM241300 00000KT 3SM BR BKN002
      TEMPO 2413/2414 6SM BR SCT003
     FM241400 00000KT P6SM BKN200
     FM250700 00000KT P6SM SCT035=



000
FTUS41 KRLX 241100
TAFEKN
TAF
KEKN 241120Z 2412/2512 00000KT 6SM BR BKN025
     FM241400 29004KT P6SM SCT150
      TEMPO 2414/2416 BKN025
     FM250000 00000KT P6SM SCT200
     FM250300 00000KT P6SM BKN035
     FM250500 00000KT P6SM BKN025=



000
FTUS41 KRLX 241100
TAFBKW
TAF
KBKW 241120Z 2412/2512 00000KT 6SM BR SCT015 BKN250
      TEMPO 2412/2414 5SM BR HZ BKN015
     FM241400 32006KT P6SM SCT150
     FM250000 00000KT P6SM FEW150=



000
FTUS41 KRLX 241100
TAFHTS
TAF
KHTS 241120Z 2412/2512 00000KT 6SM BR BKN250
      TEMPO 2412/2413 5SM BR
     FM241300 00000KT P6SM BKN150
     FM251100 00000KT 6SM BR SCT080=



000
FTUS41 KRLX 241100
TAFCKB
TAF
KCKB 241120Z 2412/2512 00000KT 5SM BR BKN250
     FM241300 00000KT P6SM BKN200
     FM250700 00000KT P6SM SCT035=



000
FTUS41 KRLX 241100
TAFCRW
TAF
KCRW 241120Z 2412/2512 00000KT 1/4SM FG VV001
      TEMPO 2412/2413 2SM BR BKN002
     FM241300 00000KT 3SM BR BKN002
      TEMPO 2413/2414 6SM BR SCT003
     FM241400 00000KT P6SM BKN200
     FM250800 00000KT 6SM BR SCT080
     FM251000 00000KT 5SM BR SCT080=



000
FTUS41 KRLX 241000 AAB
TAFPKB
TAF AMD
KPKB 241035Z 2411/2506 00000KT 1/4SM FG VV001
      TEMPO 2411/2413 2SM BR SCT002
     FM241300 00000KT 3SM BR SCT002 BKN250
     FM241400 00000KT P6SM BKN200=



000
FTUS41 KRLX 240900 AAB
TAFHTS
TAF AMD
KHTS 240915Z 2409/2506 00000KT 6SM BR BKN200
      TEMPO 2409/2411 4SM BR
     FM241100 00000KT 5SM BR BKN200
      TEMPO 2411/2413 2SM BR SCT001
     FM241400 00000KT P6SM SCT150=



000
FTUS41 KRLX 240900 AAB
TAFEKN
TAF AMD
KEKN 240912Z 2409/2506 VRB03KT 6SM BR BKN015
      TEMPO 2409/2412 3SM BR SCT025
     FM241200 00000KT 5SM BR SCT001 BKN015
      TEMPO 2412/2413 1/2SM FG BKN001
     FM241400 29004KT P6SM SCT025
     FM241500 29005KT P6SM BKN200
     FM250000 00000KT P6SM SCT200
     FM250300 00000KT P6SM BKN035
     FM250500 00000KT 6SM BR BKN025=



000
FTUS41 KRLX 240900 AAB
TAFBKW
TAF AMD
KBKW 240909Z 2409/2506 VRB03KT 6SM BR SCT025
      TEMPO 2409/2412 5SM BR SCT001 BKN025
     FM241300 VRB03KT P6SM BKN250=



000
FTUS41 KRLX 240800 AAA
TAFBKW
TAF AMD
KBKW 240828Z 2408/2506 33004KT 6SM BR BKN025
      TEMPO 2408/2412 5SM BR SCT001 BKN012
     FM241300 VRB03KT P6SM BKN250=



000
FTUS41 KRLX 240800 AAA
TAFEKN
TAF AMD
KEKN 240828Z 2408/2506 VRB03KT 6SM BR BKN015
      TEMPO 2408/2412 2SM BR BKN025
     FM241200 00000KT 2SM BR SCT001 BKN015
      TEMPO 2412/2413 1/4SM FG VV001
     FM241300 00000KT 3SM BR SCT015 BKN250
     FM241400 29004KT P6SM SCT150
     FM250000 00000KT P6SM SCT200
     FM250300 00000KT P6SM BKN035
     FM250500 00000KT 6SM BR BKN025=



000
FTUS41 KRLX 240800 AAA
TAFCRW
TAF AMD
KCRW 240828Z 2408/2506 00000KT 1/4SM FG VV001
      TEMPO 2409/2413 2SM BR SCT001 BKN200
     FM241300 00000KT 3SM BR SCT002 BKN200
     FM241400 00000KT P6SM BKN200=



000
FTUS41 KRLX 240800 AAA
TAFCKB
TAF AMD
KCKB 240828Z 2408/2506 VRB03KT 5SM BR BKN250
      TEMPO 2409/2412 6SM BR
     FM241300 00000KT P6SM SCT250=



000
FTUS41 KRLX 240800 AAA
TAFPKB
TAF AMD
KPKB 240828Z 2408/2506 00000KT 6SM BR SCT250
      TEMPO 2408/2410 4SM BR SCT001
     FM241000 00000KT 5SM BR SCT250
      TEMPO 2411/2413 2SM BR SCT001
     FM241300 00000KT 3SM BR SCT002 BKN250
     FM241400 00000KT P6SM SCT200=



000
FTUS41 KRLX 240800 AAA
TAFHTS
TAF AMD
KHTS 240828Z 2408/2506 00000KT 5SM BR SCT250
      TEMPO 2408/2409 1/4SM FG VV001
     FM240900 00000KT 1/4SM FG VV001
      TEMPO 2409/2413 2SM BR SCT001
     FM241300 00000KT 3SM BR SCT002 BKN250
     FM241400 00000KT P6SM SCT150=



000
FTUS41 KRLX 240500
TAFPKB
TAF
KPKB 240536Z 2406/2506 00000KT 5SM BR SCT250
     FM240900 00000KT 2SM BR SCT250
     FM241000 00000KT 1/4SM FG VV001
      TEMPO 2411/2413 2SM BR SCT001
     FM241300 00000KT 3SM BR SCT002 BKN250
     FM241400 00000KT P6SM SCT200=



000
FTUS41 KRLX 240500
TAFHTS
TAF
KHTS 240536Z 2406/2506 00000KT 5SM BR SCT250
      TEMPO 2406/2409 1/4SM FG VV001
     FM240900 00000KT 1/4SM FG VV001
      TEMPO 2409/2413 2SM BR SCT001
     FM241300 00000KT 3SM BR SCT002 BKN250
     FM241400 00000KT P6SM SCT150=



000
FTUS41 KRLX 240500
TAFBKW
TAF
KBKW 240536Z 2406/2506 33004KT 5SM BR SCT025
      TEMPO 2408/2412 2SM BR SCT001 SCT012
     FM241300 VRB03KT P6SM BKN250=



000
FTUS41 KRLX 240500
TAFCRW
TAF
KCRW 240536Z 2406/2506 00000KT 1SM BR BKN001
      TEMPO 2406/2410 1/4SM FG VV001
     FM241000 00000KT 1/4SM FG VV001
      TEMPO 2410/2413 2SM BR SCT001
     FM241300 00000KT 3SM BR SCT002 BKN250
     FM241400 00000KT P6SM BKN200=



000
FTUS41 KRLX 240500
TAFCKB
TAF
KCKB 240536Z 2406/2506 VRB03KT P6SM BKN250
     FM240800 VRB03KT 6SM BR BKN250
      TEMPO 2409/2412 5SM BR
     FM241300 00000KT P6SM SCT250=



000
FTUS41 KRLX 240500
TAFEKN
TAF
KEKN 240536Z 2406/2506 VRB03KT 5SM BR BKN025
      TEMPO 2406/2410 2SM BR BKN015
     FM241000 00000KT 2SM BR SCT001 BKN015
      TEMPO 2410/2413 1/4SM FG VV001
     FM241300 00000KT 3SM BR SCT015 BKN250
     FM241400 29004KT P6SM SCT150
     FM250000 00000KT P6SM SCT200
     FM250300 00000KT P6SM BKN035
     FM250500 00000KT 6SM BR BKN025=



000
FTUS41 KRLX 240200 AAA
TAFPKB
TAF AMD
KPKB 240204Z 2402/2424 00000KT P6SM FEW250
     FM240600 00000KT 5SM BR SCT250
     FM240800 00000KT 2SM BR SCT001
     FM241100 00000KT 1/4SM FG VV001
     FM241300 00000KT 4SM BR SCT001
     FM241400 26004KT P6SM SCT180=



000
FTUS41 KRLX 240200 AAA
TAFCRW
TAF AMD
KCRW 240204Z 2402/2424 00000KT P6SM FEW250
     FM240700 00000KT 5SM BR SCT250
     FM240800 00000KT 2SM BR SCT001
     FM241100 00000KT 1/4SM FG VV001
     FM241300 00000KT 4SM BR BKN003
     FM241400 28004KT P6SM SCT200=



000
FTUS41 KRLX 240200 AAA
TAFHTS
TAF AMD
KHTS 240204Z 2402/2424 00000KT P6SM SKC
     FM240700 00000KT 5SM BR SCT200
     FM240800 00000KT 2SM BR SCT001
     FM240900 00000KT 1/4SM FG VV001
     FM241300 00000KT 2SM BR BKN003
     FM241400 VRB03KT 5SM BR SCT200
     FM241500 25004KT P6SM SCT150=



000
FTUS41 KRLX 240200 AAA
TAFCKB
TAF AMD
KCKB 240204Z 2402/2424 28007KT P6SM BKN035
     FM240500 30007KT P6SM SCT035
     FM241400 30005KT P6SM SCT200=



000
FTUS41 KRLX 240200 AAA
TAFBKW
TAF AMD
KBKW 240204Z 2402/2424 32007KT P6SM SCT020
     FM241500 32006KT P6SM BKN200=



000
FTUS41 KRLX 240200 AAA
TAFEKN
TAF AMD
KEKN 240204Z 2402/2424 30010KT P6SM BKN025
     FM240600 30006KT P6SM BKN035
     FM241400 29004KT P6SM SCT150=



000
FTUS41 KRLX 240200 AAA
TAFCKB
TAF AMD
KCKB 240204Z 2402/2424 28007KT P6SM BKN035
     FM240500 30007KT P6SM SCT035
     FM241400 30005KT P6SM SCT200=



000
FTUS41 KRLX 240200 AAA
TAFCRW
TAF AMD
KCRW 240204Z 2402/2424 00000KT P6SM FEW250
     FM240700 00000KT 5SM BR SCT250
     FM240800 00000KT 2SM BR SCT001
     FM241100 00000KT 1/4SM FG VV001
     FM241300 00000KT 4SM BR BKN003
     FM241400 28004KT P6SM SCT200=



000
FTUS41 KRLX 240200 AAA
TAFPKB
TAF AMD
KPKB 240204Z 2402/2424 00000KT P6SM FEW250
     FM240600 00000KT 5SM BR SCT250
     FM240800 00000KT 2SM BR SCT001
     FM241100 00000KT 1/4SM FG VV001
     FM241300 00000KT 4SM BR SCT001
     FM241400 26004KT P6SM SCT180=



000
FTUS41 KRLX 240200 AAA
TAFBKW
TAF AMD
KBKW 240204Z 2402/2424 32007KT P6SM SCT020
     FM241500 32006KT P6SM BKN200=



000
FTUS41 KRLX 240200 AAA
TAFHTS
TAF AMD
KHTS 240204Z 2402/2424 00000KT P6SM SKC
     FM240700 00000KT 5SM BR SCT200
     FM240800 00000KT 2SM BR SCT001
     FM240900 00000KT 1/4SM FG VV001
     FM241300 00000KT 2SM BR BKN003
     FM241400 VRB03KT 5SM BR SCT200
     FM241500 25004KT P6SM SCT150=



000
FTUS41 KRLX 240200 AAA
TAFEKN
TAF AMD
KEKN 240204Z 2402/2424 30010KT P6SM BKN025
     FM240600 30006KT P6SM BKN035
     FM241400 29004KT P6SM SCT150=



000
FTUS41 KRLX 232300
TAFCKB
TAF
KCKB 232322Z 2400/2424 28007KT P6SM BKN035
     FM240100 30007KT P6SM SCT035
     FM240600 30005KT P6SM BKN200=



000
FTUS41 KRLX 232300
TAFCRW
TAF
KCRW 232322Z 2400/2424 VRB04KT P6SM SCT035
     FM240200 00000KT P6SM FEW250
     FM240900 00000KT 5SM BR SCT250
     FM241000 00000KT 2SM BR SCT001
     FM241100 00000KT 1/4SM FG VV001
     FM241300 00000KT 4SM BR BKN003
     FM241400 28004KT P6SM SCT200=



000
FTUS41 KRLX 232300
TAFHTS
TAF
KHTS 232322Z 2400/2424 00000KT P6SM SKC
     FM240700 00000KT 5SM BR SCT200
     FM240800 00000KT 2SM BR SCT001
     FM240900 00000KT 1/4SM FG VV001
     FM241300 00000KT 2SM BR BKN003
     FM241400 VRB03KT 5SM BR SCT200
     FM241500 25004KT P6SM SCT150=



000
FTUS41 KRLX 232300
TAFPKB
TAF
KPKB 232322Z 2400/2424 00000KT P6SM SKC
     FM240600 00000KT P6SM FEW250
     FM240900 00000KT 5SM BR SCT250
     FM241000 00000KT 2SM BR SCT001
     FM241100 00000KT 1/4SM FG VV001
     FM241300 00000KT 4SM BR SCT001
     FM241400 26004KT P6SM SCT180=



000
FTUS41 KRLX 232300
TAFBKW
TAF
KBKW 232322Z 2400/2424 33010KT P6SM BKN020
     FM240500 32007KT P6SM SCT020
     FM241500 32006KT P6SM BKN200=



000
FTUS41 KRLX 232300
TAFEKN
TAF
KEKN 232322Z 2400/2424 30010KT P6SM BKN025
     FM240400 30006KT P6SM BKN035
     FM241400 29004KT P6SM SCT150=



000
FTUS41 KRLX 232000 AAA
TAFPKB
TAF AMD
KPKB 232059Z 2321/2418 32007KT P6SM FEW035
     FM232200 32006KT P6SM SKC
     FM240600 00000KT P6SM FEW250
     FM240900 00000KT 5SM BR SCT250
     FM241000 00000KT 2SM BR SCT001
     FM241100 00000KT 1/4SM FG VV001
     FM241300 00000KT 4SM BR SCT001
     FM241400 VRB03KT P6SM BKN250=



000
FTUS41 KRLX 232000 AAA
TAFHTS
TAF AMD
KHTS 232059Z 2321/2418 33005KT P6SM SKC
     FM240000 00000KT P6SM SKC
     FM240700 00000KT 5SM BR SCT200
     FM240800 00000KT 2SM BR SCT001
     FM240900 00000KT 1/4SM FG VV001
     FM241300 00000KT 2SM BR BKN002
     FM241400 VRB03KT 5SM BR BKN250
     FM241500 25004KT P6SM BKN250=



000
FTUS41 KRLX 232000 AAA
TAFCKB
TAF AMD
KCKB 232059Z 2321/2418 28007KT P6SM BKN035
     FM240100 30007KT P6SM SCT035
     FM240600 30005KT P6SM BKN250
     FM241500 27005KT P6SM SCT250=



000
FTUS41 KRLX 232000 AAA
TAFEKN
TAF AMD
KEKN 232059Z 2321/2418 30010KT P6SM BKN020
     FM240300 30006KT P6SM BKN035
     FM240400 30006KT P6SM SCT035
     FM240900 29004KT P6SM BKN250=



000
FTUS41 KRLX 232000 AAA
TAFBKW
TAF AMD
KBKW 232059Z 2321/2418 33010KT P6SM BKN025
     FM232300 32008KT P6SM BKN035
     FM240000 32007KT P6SM SCT040
     FM240300 32006KT P6SM BKN200=



000
FTUS41 KRLX 232000 AAA
TAFCRW
TAF AMD
KCRW 232059Z 2321/2418 33007KT P6SM SCT035
     FM232300 32006KT P6SM SKC
     FM240600 00000KT P6SM FEW250
     FM240900 00000KT 5SM BR SCT250
     FM241000 00000KT 2SM BR SCT001
     FM241100 00000KT 1/4SM FG VV001
     FM241300 00000KT 4SM BR SCT001
     FM241400 VRB03KT P6SM BKN250=



000
FTUS41 KRLX 231700
TAFCRW
TAF
KCRW 231720Z 2318/2418 34008KT P6SM BKN030
     FM231900 33008KT P6SM BKN035
     FM232100 33007KT P6SM SCT035
     FM232300 32006KT P6SM SKC
     FM240600 00000KT P6SM SCT250
     FM240900 00000KT 5SM BR BKN250
     FM241000 00000KT 2SM BR SCT001
     FM241100 00000KT 1/4SM FG VV001
     FM241300 00000KT 4SM BR SCT001
     FM241400 VRB03KT P6SM BKN250=



000
FTUS41 KRLX 231700
TAFBKW
TAF
KBKW 231720Z 2318/2418 33010KT P6SM BKN025
     FM232200 32008KT P6SM BKN035
     FM240000 32007KT P6SM SCT040
     FM240300 32006KT P6SM BKN200=



000
FTUS41 KRLX 231700
TAFCKB
TAF
KCKB 231720Z 2318/2418 28010KT P6SM BKN025
     FM240000 30007KT P6SM BKN035
     FM240100 30007KT P6SM SCT035
     FM240600 30005KT P6SM BKN250
     FM241500 27005KT P6SM SCT250=



000
FTUS41 KRLX 231700
TAFPKB
TAF
KPKB 231720Z 2318/2418 33008KT P6SM BKN025
     FM232000 32007KT P6SM SCT035
     FM232100 32006KT P6SM SKC
     FM240600 00000KT P6SM SCT250
     FM240900 00000KT 5SM BR BKN250
     FM241000 00000KT 2SM BR SCT001
     FM241100 00000KT 1/4SM FG VV001
     FM241300 00000KT 4SM BR SCT001
     FM241400 VRB03KT P6SM BKN250=



000
FTUS41 KRLX 231700
TAFEKN
TAF
KEKN 231720Z 2318/2418 30010KT P6SM OVC012
     FM232000 30010KT P6SM BKN020
     FM240200 30006KT P6SM BKN030
     FM240300 30006KT P6SM BKN035
     FM240400 30006KT P6SM SCT035
     FM240900 29004KT P6SM BKN250=



000
FTUS41 KRLX 231700
TAFHTS
TAF
KHTS 231720Z 2318/2418 35006KT P6SM SCT040
     FM232100 33005KT P6SM SKC
     FM240000 00000KT P6SM SKC
     FM240700 00000KT 5SM BR BKN200
     FM240800 00000KT 2SM BR SCT001
     FM240900 00000KT 1/4SM FG VV001
     FM241300 00000KT 2SM BR BKN002
     FM241400 VRB03KT 5SM BR BKN250
     FM241500 25004KT P6SM BKN250=



000
FTUS41 KRLX 231700 AAD
TAFEKN
TAF AMD
KEKN 231706Z 2317/2412 30007KT P6SM OVC008
     FM231800 30008KT P6SM OVC012
     FM231900 30008KT P6SM BKN018
     FM232100 29010G16KT P6SM BKN025
     FM232300 29006KT P6SM SCT250
     FM240500 VRB03KT 6SM BR SCT020
     FM240600 VRB03KT 3SM BR SCT020=



000
FTUS41 KRLX 231700 AAD
TAFEKN
TAF AMD
KEKN 231706Z 2317/2412 30007KT P6SM OVC008
     FM231800 30008KT P6SM OVC012
     FM231900 30008KT P6SM BKN018
     FM232100 29010G16KT P6SM BKN025
     FM232300 29006KT P6SM SCT250
     FM240500 VRB03KT 6SM BR SCT020
     FM240600 VRB03KT 3SM BR SCT020=



000
FTUS41 KRLX 231600 AAC
TAFBKW
TAF AMD
KBKW 231609Z 2316/2412 33008G18KT P6SM BKN018
     FM231700 33008G18KT P6SM BKN020
     FM232200 32006KT P6SM BKN035
     FM240300 32004KT P6SM SKC=



000
FTUS41 KRLX 231500 AAB
TAFBKW
TAF AMD
KBKW 231512Z 2315/2412 33008G18KT P6SM BKN025
     FM232200 32006KT P6SM BKN035
     FM240300 32004KT P6SM SKC=



000
FTUS41 KRLX 231500 AAC
TAFEKN
TAF AMD
KEKN 231510Z 2315/2412 30007KT P6SM OVC007
      TEMPO 2315/2316 3SM -RA BR
     FM231600 30007G17KT P6SM OVC010
     FM231700 30007KT P6SM BKN018
     FM231800 29010G16KT P6SM BKN025
     FM232300 29006KT P6SM SCT250
     FM240500 VRB03KT 6SM BR SCT020
     FM240600 VRB03KT 3SM BR SCT020=



000
FTUS41 KRLX 231500 AAC
TAFPKB
TAF AMD
KPKB 231507Z 2315/2412 32004KT P6SM BKN015
     FM231700 31005KT P6SM BKN025
     FM231900 31005KT P6SM SCT035
     FM240200 00000KT P6SM SCT200=



000
FTUS41 KRLX 231500 AAB
TAFCRW
TAF AMD
KCRW 231506Z 2315/2412 32005KT P6SM BKN012
     FM231600 30005KT P6SM BKN025
     FM232100 32007KT P6SM SCT030
     FM240500 00000KT P6SM FEW150=



000
FTUS41 KRLX 231400 AAB
TAFEKN
TAF AMD
KEKN 231401Z 2314/2412 30007KT P6SM OVC008
     FM231500 30007G17KT P6SM OVC012
     FM231700 30007KT P6SM BKN020
     FM232000 30007G17KT P6SM BKN030
     FM232300 29006KT P6SM SCT250
     FM240500 VRB03KT 6SM BR SCT020
     FM240600 VRB03KT 3SM BR SCT020=



000
FTUS41 KRLX 231200 AAA
TAFCKB
TAF AMD
KCKB 231259Z 2313/2412 28005KT P6SM OVC015
     FM231600 30006KT P6SM BKN025
     FM231900 29005KT P6SM BKN035
     FM232300 28004KT P6SM SCT035
     FM240600 00000KT 3SM BR SCT025
     FM241000 00000KT 5SM BR SCT050
     FM241100 00000KT P6SM SCT100=



000
FTUS41 KRLX 231200 AAB
TAFPKB
TAF AMD
KPKB 231259Z 2313/2412 32004KT P6SM SCT005 BKN035
      TEMPO 2313/2315 BKN005
     FM231600 31005KT P6SM SCT035
     FM240200 00000KT P6SM SCT200=



000
FTUS41 KRLX 231200 AAA
TAFBKW
TAF AMD
KBKW 231258Z 2313/2412 32008KT P6SM OVC007
     FM231500 33008KT P6SM OVC012
     FM232200 32006KT P6SM SCT020
     FM240500 VRB03KT 6SM BR FEW015
     FM240600 VRB03KT 2SM BR FEW015=



000
FTUS41 KRLX 231100 AAA
TAFEKN
TAF AMD
KEKN 231155Z 2312/2412 30007KT P6SM OVC008
     FM231400 30007G17KT P6SM OVC012
     FM231600 30007KT P6SM BKN020
     FM231900 30007G17KT P6SM BKN030
     FM232300 29006KT P6SM SCT250
     FM240500 VRB03KT 6SM BR SCT020
     FM240600 VRB03KT 3SM BR SCT020=



000
FTUS41 KRLX 231100 AAA
TAFCRW
TAF AMD
KCRW 231154Z 2312/2412 32003KT P6SM SCT018 BKN035
      TEMPO 2312/2314 BKN018
     FM231400 30005KT P6SM SCT015 BKN035
     FM232000 31004KT P6SM SCT025
     FM240500 00000KT P6SM FEW150=



000
FTUS41 KRLX 231100 AAA
TAFPKB
TAF AMD
KPKB 231154Z 2312/2412 32004KT P6SM SCT008 BKN035
      TEMPO 2312/2315 BKN008
     FM231600 31005KT P6SM SCT035
     FM240200 00000KT P6SM SCT200=



000
FTUS41 KRLX 231100
TAFPKB
TAF
KPKB 231123Z 2312/2412 32004KT P6SM BKN035
     FM231600 31005KT P6SM SCT035
     FM240200 00000KT P6SM SCT200=



000
FTUS41 KRLX 231100
TAFEKN
TAF
KEKN 231123Z 2312/2412 30007KT P6SM OVC012
     FM231400 30007G17KT P6SM OVC020
     FM231700 30007G17KT P6SM BKN030
     FM232300 29006KT P6SM SCT250
     FM240500 VRB03KT 6SM BR SCT020
     FM240600 VRB03KT 3SM BR SCT020=



000
FTUS41 KRLX 231100
TAFCRW
TAF
KCRW 231123Z 2312/2412 32003KT P6SM BKN035
     FM231400 30005KT P6SM SCT015 BKN035
     FM232000 31004KT P6SM SCT025
     FM240500 00000KT P6SM FEW150=



000
FTUS41 KRLX 231100
TAFBKW
TAF
KBKW 231123Z 2312/2412 32008KT P6SM OVC010
     FM231500 33008KT P6SM OVC015
     FM232200 32006KT P6SM SCT020
     FM240500 VRB03KT 6SM BR FEW015
     FM240600 VRB03KT 2SM BR FEW015=



000
FTUS41 KRLX 231100
TAFCKB
TAF
KCKB 231123Z 2312/2412 28005KT P6SM OVC020
     FM231900 29005KT P6SM BKN035
     FM232300 28004KT P6SM SCT035
     FM240600 00000KT 3SM BR SCT025
     FM241000 00000KT 5SM BR SCT050
     FM241100 00000KT P6SM SCT100=



000
FTUS41 KRLX 231100
TAFHTS
TAF
KHTS 231123Z 2312/2412 34005KT P6SM OVC035
     FM231500 32003KT P6SM SCT025 SCT200=



000
FTUS41 KRLX 231000 AAC
TAFEKN
TAF AMD
KEKN 231045Z 2311/2406 31006KT P6SM OVC015
     FM231400 30009G15KT P6SM OVC020
     FM231700 30009G15KT P6SM BKN035
     FM232300 30008KT P6SM SCT250=



000
FTUS41 KRLX 230800 AAA
TAFBKW
TAF AMD
KBKW 230833Z 2309/2406 33007KT P6SM OVC008
     FM231400 32007KT P6SM OVC015
     FM232200 31007KT P6SM SCT020=



000
FTUS41 KRLX 230800 AAA
TAFPKB
TAF AMD
KPKB 230833Z 2309/2406 33004KT P6SM SCT020 OVC030
     FM231100 VRB03KT P6SM BKN025
     FM231600 31006KT P6SM SCT025
     FM240200 00000KT P6SM SCT200=



000
FTUS41 KRLX 230800 AAA
TAFHTS
TAF AMD
KHTS 230833Z 2309/2406 VRB03KT P6SM OVC035
     FM231100 VRB03KT 3SM BR FEW015 OVC030
     FM231500 00000KT P6SM SCT025
     FM232100 36003KT P6SM FEW035 SCT200=



000
FTUS41 KRLX 230800 AAB
TAFEKN
TAF AMD
KEKN 230833Z 2309/2406 31006KT P6SM OVC010
     FM231400 30009G15KT P6SM OVC020
     FM231700 30009G15KT P6SM BKN035
     FM232300 30008KT P6SM SCT250=



000
FTUS41 KRLX 230800 AAA
TAFCKB
TAF AMD
KCKB 230833Z 2309/2406 29004KT 5SM BR OVC020
     FM231300 30005KT P6SM OVC020
     FM231700 31006KT P6SM BKN035
     FM232200 30006KT P6SM SCT035=



000
FTUS41 KRLX 230800 AAA
TAFCRW
TAF AMD
KCRW 230833Z 2309/2406 VRB03KT P6SM OVC020
     FM231400 30005KT P6SM SCT015 BKN035
     FM232000 30005KT P6SM SCT025
     FM240000 00000KT P6SM FEW030
     FM240500 00000KT P6SM FEW150=



000
FTUS41 KRLX 230600 AAA
TAFEKN
TAF AMD
KEKN 230630Z 2307/2406 31006KT P6SM OVC010
     FM231400 30009G15KT P6SM OVC020
     FM231700 30009G15KT P6SM BKN035
     FM232300 30008KT P6SM SCT250=



000
FTUS41 KRLX 230500
TAFCRW
TAF
KCRW 230532Z 2306/2406 31005KT P6SM OVC025
     FM230800 VRB03KT P6SM OVC020
     FM231400 30005KT P6SM SCT015 BKN035
     FM232000 30005KT P6SM SCT025
     FM240000 00000KT P6SM FEW030
     FM240500 00000KT P6SM FEW150=



000
FTUS41 KRLX 230500
TAFCKB
TAF
KCKB 230532Z 2306/2406 VRB03KT P6SM OVC020
     FM230800 29004KT 5SM BR OVC015
     FM231300 30005KT P6SM OVC020
     FM231700 31006KT P6SM BKN035
     FM232200 30006KT P6SM SCT035=



000
FTUS41 KRLX 230500
TAFHTS
TAF
KHTS 230532Z 2306/2406 VRB03KT P6SM OVC030
     FM231100 VRB03KT 3SM BR FEW015 OVC030
     FM231500 00000KT P6SM SCT025
     FM232100 36003KT P6SM FEW035 SCT200=



000
FTUS41 KRLX 230500
TAFEKN
TAF
KEKN 230532Z 2306/2406 31006KT P6SM OVC015
     FM230900 31004KT P6SM OVC009
     FM231400 30009G15KT P6SM OVC020
     FM231700 30009G15KT P6SM BKN035
     FM232300 30008KT P6SM SCT250=



000
FTUS41 KRLX 230500
TAFPKB
TAF
KPKB 230532Z 2306/2406 33004KT P6SM OVC030
     FM231100 VRB03KT P6SM BKN025
     FM231600 31006KT P6SM SCT025
     FM240200 00000KT P6SM SCT200=



000
FTUS41 KRLX 230500
TAFBKW
TAF
KBKW 230532Z 2306/2406 34006KT 5SM BR OVC010
     FM230900 33007KT P6SM OVC008
     FM231400 32007KT P6SM OVC015
     FM232200 31007KT P6SM SCT020=



000
FTUS41 KRLX 230200 AAA
TAFCRW
TAF AMD
KCRW 230254Z 2303/2324 VRB03KT P6SM OVC020
     FM231300 32005KT P6SM BKN015 OVC025
     FM231700 31006KT P6SM BKN025
     FM232000 30005KT P6SM SCT025=



000
FTUS41 KRLX 230200 AAA
TAFHTS
TAF AMD
KHTS 230254Z 2303/2324 35005KT P6SM OVC025
     FM231100 VRB03KT 3SM BR FEW015
     FM231400 32004KT P6SM SCT025
     FM232100 30004KT P6SM FEW035 FEW200=



000
FTUS41 KRLX 230200 AAA
TAFPKB
TAF AMD
KPKB 230254Z 2303/2324 35005KT P6SM OVC030
     FM231100 31003KT P6SM BKN025
     FM231600 31006KT P6SM SCT025=



000
FTUS41 KRLX 230200 AAA
TAFBKW
TAF AMD
KBKW 230254Z 2303/2324 34006KT P6SM BKN008 OVC012
     FM230900 33007KT P6SM OVC008
     FM231400 32007KT P6SM OVC015
     FM232200 31007KT P6SM SCT020=



000
FTUS41 KRLX 230200 AAA
TAFCKB
TAF AMD
KCKB 230254Z 2303/2324 33004KT P6SM OVC025
     FM230800 29004KT P6SM OVC015
     FM231500 31006KT P6SM BKN025
     FM232200 30006KT P6SM SCT035=



000
FTUS41 KRLX 230200 AAA
TAFEKN
TAF AMD
KEKN 230254Z 2303/2324 33007KT P6SM OVC012
     FM230600 34007KT P6SM OVC015
     FM231500 30009G15KT P6SM OVC020
     FM231700 30009G15KT P6SM BKN025=



000
FTUS41 KRLX 222300 CCA
TAFBKW
TAF COR
KBKW 222330Z 2300/2324 33007KT 5SM -DZ BR BKN008 OVC015
     FM230300 34006KT P6SM OVC012
     FM230900 33007KT P6SM OVC008
     FM231400 32007KT P6SM OVC015
     FM232200 31007KT P6SM SCT020=



000
FTUS41 KRLX 222300
TAFCKB
TAF
KCKB 222329Z 2300/2324 34005KT P6SM OVC015
     FM230200 33004KT P6SM OVC025
     FM230800 29004KT 5SM -DZ BR OVC015
     FM231400 31006KT P6SM BKN025
     FM232200 30006KT P6SM SCT035=



000
FTUS41 KRLX 222300
TAFEKN
TAF
KEKN 222329Z 2300/2324 33007KT 5SM -DZ BR OVC012
     FM230600 34007KT P6SM OVC015
     FM231500 30009G15KT P6SM OVC020
     FM231700 30009G15KT P6SM BKN025=



000
FTUS41 KRLX 222300
TAFHTS
TAF
KHTS 222329Z 2300/2324 35005KT P6SM BKN030
     FM230400 33003KT P6SM SCT030
     FM231100 VRB03KT 3SM BR FEW015
     FM231400 32004KT P6SM SCT025
     FM232100 30004KT P6SM FEW035 FEW200=



000
FTUS41 KRLX 222300
TAFPKB
TAF
KPKB 222329Z 2300/2324 35005KT P6SM OVC030
     FM230500 34005KT P6SM BKN020
     FM231100 31003KT P6SM BKN025
     FM231600 31006KT P6SM SCT025=



000
FTUS41 KRLX 222300
TAFBKW
TAF
KBKW 222329Z 2300/2324 33007KT 5SM -DZ BR OVC015
     FM230500 34006KT P6SM OVC010
     FM230900 33007KT P6SM OVC008
     FM231400 32007KT P6SM OVC015
     FM232200 31007KT P6SM SCT020=



000
FTUS41 KRLX 222300
TAFCRW
TAF
KCRW 222329Z 2300/2324 32004KT P6SM BKN016 OVC025
     FM230200 VRB03KT P6SM OVC020
     FM231300 32005KT P6SM BKN015 OVC025
     FM231700 31006KT P6SM BKN025
     FM232000 30005KT P6SM SCT025=



000
FTUS41 KRLX 222200 AAB
TAFBKW
TAF AMD
KBKW 222209Z 2222/2318 32010KT 6SM -RA OVC006
     FM230000 32009KT P6SM OVC012
     FM230300 31008KT P6SM BKN018
     FM231400 31009G14KT P6SM BKN020=



000
FTUS41 KRLX 222200 AAC
TAFEKN
TAF AMD
KEKN 222207Z 2222/2318 33005KT 5SM -RA BR BKN009 OVC015
     FM230000 31009KT P6SM OVC020
     FM231500 31007KT P6SM OVC025=



000
FTUS41 KRLX 222000 AAB
TAFEKN
TAF AMD
KEKN 222000Z 2220/2318 33010KT 6SM -RA OVC012
      TEMPO 2220/2221 3SM -RA BR BKN009
     FM222300 31009KT P6SM OVC020
     FM230000 31007KT P6SM OVC025=



000
FTUS41 KRLX 221900 AAA
TAFBKW
TAF AMD
KBKW 221957Z 2220/2318 32010KT 5SM -RA OVC006
     FM222100 32009KT P6SM OVC012
     FM230000 31008KT P6SM OVC020
     FM230300 31008KT P6SM BKN018
     FM231400 31009G14KT P6SM BKN020=



000
FTUS41 KRLX 221800 AAA
TAFEKN
TAF AMD
KEKN 221810Z 2218/2318 31010KT P6SM OVC012
      TEMPO 2218/2220 3SM -RA BR BKN008
     FM222100 31009KT P6SM OVC020
     FM230000 31007KT P6SM OVC025=



000
FTUS41 KRLX 221700
TAFCKB
TAF
KCKB 221732Z 2218/2318 33010G16KT P6SM OVC015
      TEMPO 2218/2219 4SM -RA BR BKN008
     FM222100 33009KT P6SM OVC020
     FM230000 32007KT P6SM OVC025=



000
FTUS41 KRLX 221700
TAFPKB
TAF
KPKB 221732Z 2218/2318 35010KT P6SM OVC025
     FM230000 36006KT P6SM BKN030
     FM231000 32005KT P6SM SCT030=



000
FTUS41 KRLX 221700
TAFBKW
TAF
KBKW 221732Z 2218/2318 32011G18KT P6SM OVC005
     FM221900 32011G18KT P6SM OVC008
     FM222000 32010G18KT P6SM OVC012
     FM230000 31008KT P6SM OVC020
     FM230300 31008KT P6SM BKN018
     FM231400 31009G14KT P6SM BKN020=



000
FTUS41 KRLX 221700
TAFCRW
TAF
KCRW 221732Z 2218/2318 32009KT P6SM OVC018
     FM221900 32009KT P6SM BKN020
     FM230000 33005KT P6SM OVC030
     FM231700 31006KT P6SM BKN035=



000
FTUS41 KRLX 221700
TAFHTS
TAF
KHTS 221732Z 2218/2318 33009KT P6SM BKN025
     FM230000 36005KT P6SM BKN030
     FM230400 35005KT P6SM SCT030
     FM230500 34004KT P6SM SKC=



000
FTUS41 KRLX 221700
TAFEKN
TAF
KEKN 221732Z 2218/2318 31010KT P6SM OVC012
     FM222100 31009KT P6SM OVC020
     FM230000 31007KT P6SM OVC025=



000
FTUS41 KRLX 221700
TAFCRW
TAF
KCRW 221732Z 2218/2318 32009KT P6SM OVC018
     FM221900 32009KT P6SM BKN020
     FM230000 33005KT P6SM OVC030
     FM231700 31006KT P6SM BKN035=



000
FTUS41 KRLX 221700
TAFBKW
TAF
KBKW 221732Z 2218/2318 32011G18KT P6SM OVC005
     FM221900 32011G18KT P6SM OVC008
     FM222000 32010G18KT P6SM OVC012
     FM230000 31008KT P6SM OVC020
     FM230300 31008KT P6SM BKN018
     FM231400 31009G14KT P6SM BKN020=



000
FTUS41 KRLX 221700
TAFPKB
TAF
KPKB 221732Z 2218/2318 35010KT P6SM OVC025
     FM230000 36006KT P6SM BKN030
     FM231000 32005KT P6SM SCT030=



000
FTUS41 KRLX 221700
TAFCKB
TAF
KCKB 221732Z 2218/2318 33010G16KT P6SM OVC015
      TEMPO 2218/2219 4SM -RA BR BKN008
     FM222100 33009KT P6SM OVC020
     FM230000 32007KT P6SM OVC025=



000
FTUS41 KRLX 221700
TAFEKN
TAF
KEKN 221732Z 2218/2318 31010KT P6SM OVC012
     FM222100 31009KT P6SM OVC020
     FM230000 31007KT P6SM OVC025=



000
FTUS41 KRLX 221700
TAFHTS
TAF
KHTS 221732Z 2218/2318 33009KT P6SM BKN025
     FM230000 36005KT P6SM BKN030
     FM230400 35005KT P6SM SCT030
     FM230500 34004KT P6SM SKC=



000
FTUS41 KRLX 221700 AAA
TAFPKB
TAF AMD
KPKB 221708Z 2217/2312 34007KT P6SM BKN025
     FM222100 34007KT P6SM BKN035
     FM230200 34005KT P6SM BKN200
     FM230600 VRB03KT P6SM SCT025
     FM230900 VRB03KT P6SM SCT140=



000
FTUS41 KRLX 221700 AAA
TAFPKB
TAF AMD
KPKB 221708Z 2217/2312 34007KT P6SM BKN025
     FM222100 34007KT P6SM BKN035
     FM230200 34005KT P6SM BKN200
     FM230600 VRB03KT P6SM SCT025
     FM230900 VRB03KT P6SM SCT140=



000
FTUS41 KRLX 221500 AAD
TAFBKW
TAF AMD
KBKW 221556Z 2216/2312 33010KT 3SM -RA BR OVC003
     FM221700 32008KT 4SM BR OVC005
     FM221800 32009KT P6SM OVC008
     FM222000 32009KT P6SM OVC015
     FM230300 32008KT P6SM BKN010
     FM230700 32008KT P6SM BKN015=



000
FTUS41 KRLX 221500 AAA
TAFHTS
TAF AMD
KHTS 221556Z 2216/2312 33007KT P6SM BKN025
     FM221900 33006KT P6SM BKN030
     FM230000 33004KT P6SM SCT035
     FM230200 33004KT P6SM BKN035
     FM230400 34004KT P6SM SCT090=



000
FTUS41 KRLX 221500 AAD
TAFBKW
TAF AMD
KBKW 221556Z 2216/2312 33010KT 3SM -RA BR OVC003
     FM221700 32008KT 4SM BR OVC005
     FM221800 32009KT P6SM OVC008
     FM222000 32009KT P6SM OVC015
     FM230300 32008KT P6SM BKN010
     FM230700 32008KT P6SM BKN015=



000
FTUS41 KRLX 221500 AAA
TAFHTS
TAF AMD
KHTS 221556Z 2216/2312 33007KT P6SM BKN025
     FM221900 33006KT P6SM BKN030
     FM230000 33004KT P6SM SCT035
     FM230200 33004KT P6SM BKN035
     FM230400 34004KT P6SM SCT090=



000
FTUS41 KRLX 221500 AAC
TAFBKW
TAF AMD
KBKW 221526Z 2215/2312 33010KT 3SM -RA BR OVC002
      TEMPO 2215/2216 2SM -RA BR
     FM221600 32008KT 4SM BR OVC005
     FM221700 32009KT P6SM OVC008
     FM221900 32009KT P6SM OVC015
     FM230300 32008KT P6SM BKN010
     FM230700 32008KT P6SM BKN015=



000
FTUS41 KRLX 221500 AAB
TAFEKN
TAF AMD
KEKN 221526Z 2215/2312 32009KT P6SM OVC007
     FM221600 32007KT P6SM OVC010
     FM221800 31007KT P6SM OVC015
     FM230200 31007KT 6SM BR BKN015
     FM230300 32008KT 5SM BR BKN010
     FM230600 31006KT 1/2SM FG VV001=



000
FTUS41 KRLX 221300 AAB
TAFBKW
TAF AMD
KBKW 221358Z 2214/2312 33010KT 3SM -RA BR OVC002
      TEMPO 2214/2215 2SM -RA BR
     FM221500 32008KT 4SM BR OVC005
     FM221600 32009KT P6SM OVC008
     FM221800 32009KT P6SM OVC015
     FM230300 32008KT P6SM BKN010
     FM230700 32008KT P6SM BKN015=



000
FTUS41 KRLX 221300 AAA
TAFEKN
TAF AMD
KEKN 221357Z 2214/2312 32009KT P6SM OVC006
     FM221500 32007KT P6SM OVC010
     FM221700 31007KT P6SM OVC015
     FM230200 31007KT 6SM BR BKN015
     FM230300 32008KT 5SM BR BKN010
     FM230600 31006KT 1/2SM FG VV001=



000
FTUS41 KRLX 221300 AAA
TAFBKW
TAF AMD
KBKW 221307Z 2213/2312 33007KT 4SM -RA BR OVC002
      TEMPO 2213/2214 1SM -RA BR
     FM221400 32008KT 4SM BR OVC005
     FM221500 32009KT P6SM OVC008
     FM221700 32009KT P6SM OVC015
     FM230300 32008KT P6SM BKN010
     FM230700 32008KT P6SM BKN015=



000
FTUS41 KRLX 221300 AAA
TAFCKB
TAF AMD
KCKB 221305Z 2213/2312 31006KT P6SM OVC015
     FM221800 32006KT P6SM OVC025
     FM222100 33006KT P6SM BKN025
     FM230400 33006KT 6SM BR BKN025
     FM230800 30005KT 4SM BR BKN020=



000
FTUS41 KRLX 221300 AAA
TAFCRW
TAF AMD
KCRW 221304Z 2213/2312 30006KT P6SM OVC012
     FM221800 32007KT P6SM OVC025
     FM222200 32006KT P6SM BKN030
     FM230000 31005KT P6SM BKN035
     FM230400 33005KT P6SM BKN250=



000
FTUS41 KRLX 221100
TAFCRW
TAF
KCRW 221139Z 2212/2312 31005KT 4SM -RA BR OVC004
      TEMPO 2213/2214 P6SM NSW SCT004 BKN012
     FM221400 32006KT P6SM OVC012
     FM221800 32007KT P6SM OVC025
     FM222200 32006KT P6SM BKN030
     FM230000 31005KT P6SM BKN035
     FM230400 33005KT P6SM BKN250=



000
FTUS41 KRLX 221100
TAFCKB
TAF
KCKB 221139Z 2212/2312 29006KT P6SM OVC007
      TEMPO 2213/2214 4SM -RA BR SCT007 BKN012
     FM221400 31006KT P6SM OVC012
     FM222100 33006KT P6SM BKN025
     FM230400 33006KT 6SM BR BKN025
     FM230800 30005KT 4SM BR BKN020=



000
FTUS41 KRLX 221100
TAFEKN
TAF
KEKN 221139Z 2212/2312 32006KT 4SM -RA BR OVC008
     FM221400 32007KT P6SM OVC010
     FM221700 31007KT P6SM OVC015
     FM230200 31007KT 6SM BR BKN015
     FM230300 32008KT 5SM BR BKN010
     FM230600 31006KT 1/2SM FG VV001=



000
FTUS41 KRLX 221100
TAFBKW
TAF
KBKW 221139Z 2212/2312 31007KT 4SM -RA BR OVC002
     FM221400 32008KT P6SM OVC008
     FM221700 32009KT P6SM OVC015
     FM230300 32008KT P6SM BKN010
     FM230700 32008KT P6SM BKN015=



000
FTUS41 KRLX 221100
TAFPKB
TAF
KPKB 221139Z 2212/2312 34006KT P6SM OVC012
     FM221800 34007KT P6SM BKN025
     FM222100 34007KT P6SM BKN035
     FM230200 34005KT P6SM BKN200
     FM230600 VRB03KT P6SM SCT025
     FM230900 VRB03KT P6SM SCT140=



000
FTUS41 KRLX 221100
TAFHTS
TAF
KHTS 221139Z 2212/2312 32006KT P6SM OVC015
     FM221800 33007KT P6SM BKN025
     FM221900 33006KT P6SM BKN030
     FM230000 33004KT P6SM SCT035
     FM230200 33004KT P6SM BKN035
     FM230400 34004KT P6SM SCT090=



000
FTUS41 KRLX 220800 AAA
TAFBKW
TAF AMD
KBKW 220836Z 2209/2306 32005KT P6SM SCT004 OVC009
     FM221500 32009KT P6SM OVC015
     FM222200 33009KT P6SM OVC020
     FM230300 33007KT P6SM BKN010=



000
FTUS41 KRLX 220800 AAA
TAFCRW
TAF AMD
KCRW 220836Z 2209/2306 31006KT P6SM OVC015
     FM221700 32007KT P6SM OVC025
     FM222200 32005KT P6SM BKN035
     FM230400 VRB03KT P6SM BKN050=



000
FTUS41 KRLX 220800 AAA
TAFPKB
TAF AMD
KPKB 220836Z 2209/2306 31006KT P6SM OVC008
     FM221600 34007KT P6SM BKN020
     FM221900 34007KT P6SM BKN035
     FM230200 VRB03KT P6SM BKN250=



000
FTUS41 KRLX 220800 AAA
TAFHTS
TAF AMD
KHTS 220836Z 2209/2306 32005KT P6SM OVC015
     FM221600 33007KT P6SM BKN025
     FM221900 33006KT P6SM BKN035
     FM230000 VRB03KT P6SM SCT035=



000
FTUS41 KRLX 220800 AAB
TAFEKN
TAF AMD
KEKN 220836Z 2209/2306 31004KT 4SM BR BKN007 OVC017
     FM221600 31006KT P6SM OVC015
     FM230200 31006KT 6SM BR BKN015
     FM230300 31007KT 5SM BR BKN010=



000
FTUS41 KRLX 220800 AAA
TAFCKB
TAF AMD
KCKB 220836Z 2209/2306 32005KT P6SM OVC009
     FM221600 32005KT P6SM OVC015
     FM222100 33006KT P6SM BKN025
     FM230400 32005KT 6SM BR BKN025=



    US Dept of Commerce
    National Oceanic and Atmospheric Administration
    National Weather Service
    1325 East West Highway
    Silver Spring, MD 20910
    Page Author: NWS Internet Services Team
Disclaimer
Information Quality
Credits
Glossary
Privacy Policy
Freedom of Information Act (FOIA)
About Us
Career Opportunities